sensor_id;sensor_type;location;lat;lon;timestamp;temperature;humidity
15949;DHT22;14848;50.954;6.642;2022-07-23T00:02:21;16.40;99.90
15949;DHT22;14848;50.954;6.642;2022-07-23T00:04:47;16.40;99.90
15949;DHT22;14848;50.954;6.642;2022-07-23T00:07:13;16.30;99.90
15949;DHT22;14848;50.954;6.642;2022-07-23T00:09:39;16.40;99.90
15949;DHT22;14848;50.954;6.642;2022-07-23T00:12:05;16.30;99.90
15949;DHT22;14848;50.954;6.642;2022-07-23T00:14:31;16.30;99.90
15949;DHT22;14848;50.954;6.642;2022-07-23T00:16:57;16.20;99.90
15949;DHT22;14848;50.954;6.642;2022-07-23T00:19:22;16.30;99.90
15949;DHT22;14848;50.954;6.642;2022-07-23T00:21:48;16.30;99.90
15949;DHT22;14848;50.954;6.642;2022-07-23T00:24:13;16.30;99.90
15949;DHT22;14848;50.954;6.642;2022-07-23T00:26:39;16.30;99.90
15949;DHT22;14848;50.954;6.642;2022-07-23T00:29:05;16.30;99.90
15949;DHT22;14848;50.954;6.642;2022-07-23T00:31:30;16.30;99.90
15949;DHT22;14848;50.954;6.642;2022-07-23T00:33:56;16.30;99.90
15949;DHT22;14848;50.954;6.642;2022-07-23T00:36:23;16.30;99.90
15949;DHT22;14848;50.954;6.642;2022-07-23T00:38:49;16.30;99.90
15949;DHT22;14848;50.954;6.642;2022-07-23T00:41:15;15.60;99.90
15949;DHT22;14848;50.954;6.642;2022-07-23T00:43:41;16.30;99.90
15949;DHT22;14848;50.954;6.642;2022-07-23T00:46:07;16.30;99.90
15949;DHT22;14848;50.954;6.642;2022-07-23T00:48:32;16.40;99.90
15949;DHT22;14848;50.954;6.642;2022-07-23T00:50:58;16.40;99.90
15949;DHT22;14848;50.954;6.642;2022-07-23T00:53:24;16.30;99.90
15949;DHT22;14848;50.954;6.642;2022-07-23T00:55:50;16.30;99.90
15949;DHT22;14848;50.954;6.642;2022-07-23T00:58:16;16.30;99.90
15949;DHT22;14848;50.954;6.642;2022-07-23T01:00:42;16.20;99.90
15949;DHT22;14848;50.954;6.642;2022-07-23T01:03:08;16.30;99.90
15949;DHT22;14848;50.954;6.642;2022-07-23T01:05:33;16.30;99.90
15949;DHT22;14848;50.954;6.642;2022-07-23T01:07:59;16.30;99.90
15949;DHT22;14848;50.954;6.642;2022-07-23T01:10:26;16.30;99.90
15949;DHT22;14848;50.954;6.642;2022-07-23T01:13:04;16.30;99.90
15949;DHT22;14848;50.954;6.642;2022-07-23T01:15:32;16.30;99.90
15949;DHT22;14848;50.954;6.642;2022-07-23T01:17:58;16.30;99.90
15949;DHT22;14848;50.954;6.642;2022-07-23T01:20:24;16.30;99.90
15949;DHT22;14848;50.954;6.642;2022-07-23T01:22:50;16.30;99.90
15949;DHT22;14848;50.954;6.642;2022-07-23T01:25:16;16.30;99.90
15949;DHT22;14848;50.954;6.642;2022-07-23T01:27:42;16.40;99.90
15949;DHT22;14848;50.954;6.642;2022-07-23T01:30:08;16.40;99.90
15949;DHT22;14848;50.954;6.642;2022-07-23T01:32:34;16.30;99.90
15949;DHT22;14848;50.954;6.642;2022-07-23T01:35:00;16.30;99.90
15949;DHT22;14848;50.954;6.642;2022-07-23T01:37:25;16.30;99.90
15949;DHT22;14848;50.954;6.642;2022-07-23T01:39:51;16.30;99.90
15949;DHT22;14848;50.954;6.642;2022-07-23T01:42:17;16.20;99.90
15949;DHT22;14848;50.954;6.642;2022-07-23T01:44:43;16.10;99.90
15949;DHT22;14848;50.954;6.642;2022-07-23T01:47:08;16.00;99.90
15949;DHT22;14848;50.954;6.642;2022-07-23T01:49:34;16.00;99.90
15949;DHT22;14848;50.954;6.642;2022-07-23T01:51:59;16.00;99.90
15949;DHT22;14848;50.954;6.642;2022-07-23T01:54:30;16.00;99.90
15949;DHT22;14848;50.954;6.642;2022-07-23T01:56:56;16.00;99.90
15949;DHT22;14848;50.954;6.642;2022-07-23T01:59:22;16.00;99.90
15949;DHT22;14848;50.954;6.642;2022-07-23T02:01:48;15.90;99.90
15949;DHT22;14848;50.954;6.642;2022-07-23T02:04:19;16.00;99.90
15949;DHT22;14848;50.954;6.642;2022-07-23T02:06:46;16.00;99.90
15949;DHT22;14848;50.954;6.642;2022-07-23T02:09:12;15.90;99.90
15949;DHT22;14848;50.954;6.642;2022-07-23T02:11:37;15.90;99.90
15949;DHT22;14848;50.954;6.642;2022-07-23T02:14:03;15.90;99.90
15949;DHT22;14848;50.954;6.642;2022-07-23T02:16:30;15.90;99.90
15949;DHT22;14848;50.954;6.642;2022-07-23T02:18:55;15.80;99.90
15949;DHT22;14848;50.954;6.642;2022-07-23T02:21:21;15.80;99.90
15949;DHT22;14848;50.954;6.642;2022-07-23T02:23:47;15.80;99.90
15949;DHT22;14848;50.954;6.642;2022-07-23T02:26:12;15.80;99.90
15949;DHT22;14848;50.954;6.642;2022-07-23T02:28:38;15.70;99.90
15949;DHT22;14848;50.954;6.642;2022-07-23T02:31:04;15.70;99.90
15949;DHT22;14848;50.954;6.642;2022-07-23T02:33:30;15.60;99.90
15949;DHT22;14848;50.954;6.642;2022-07-23T02:35:56;15.60;99.90
15949;DHT22;14848;50.954;6.642;2022-07-23T02:38:22;15.60;99.90
15949;DHT22;14848;50.954;6.642;2022-07-23T02:40:47;15.50;99.90
15949;DHT22;14848;50.954;6.642;2022-07-23T02:43:13;15.60;99.90
15949;DHT22;14848;50.954;6.642;2022-07-23T02:45:39;15.60;99.90
15949;DHT22;14848;50.954;6.642;2022-07-23T02:48:04;15.60;99.90
15949;DHT22;14848;50.954;6.642;2022-07-23T02:50:30;15.50;99.90
15949;DHT22;14848;50.954;6.642;2022-07-23T02:52:56;15.50;99.90
15949;DHT22;14848;50.954;6.642;2022-07-23T02:55:21;15.40;99.90
15949;DHT22;14848;50.954;6.642;2022-07-23T02:57:47;15.40;99.90
15949;DHT22;14848;50.954;6.642;2022-07-23T03:00:13;15.40;99.90
15949;DHT22;14848;50.954;6.642;2022-07-23T03:02:39;15.30;99.90
15949;DHT22;14848;50.954;6.642;2022-07-23T03:05:05;15.30;99.90
15949;DHT22;14848;50.954;6.642;2022-07-23T03:07:31;15.30;99.90
15949;DHT22;14848;50.954;6.642;2022-07-23T03:09:56;15.30;99.90
15949;DHT22;14848;50.954;6.642;2022-07-23T03:12:22;15.20;99.90
15949;DHT22;14848;50.954;6.642;2022-07-23T03:14:48;15.30;99.90
15949;DHT22;14848;50.954;6.642;2022-07-23T03:17:13;15.20;99.90
15949;DHT22;14848;50.954;6.642;2022-07-23T03:19:39;15.20;99.90
15949;DHT22;14848;50.954;6.642;2022-07-23T03:22:05;15.20;99.90
15949;DHT22;14848;50.954;6.642;2022-07-23T03:24:31;15.10;99.90
15949;DHT22;14848;50.954;6.642;2022-07-23T03:27:15;15.10;99.90
15949;DHT22;14848;50.954;6.642;2022-07-23T03:29:41;15.10;99.90
15949;DHT22;14848;50.954;6.642;2022-07-23T03:32:07;15.00;99.90
15949;DHT22;14848;50.954;6.642;2022-07-23T03:34:32;15.10;99.90
15949;DHT22;14848;50.954;6.642;2022-07-23T03:36:58;15.00;99.90
15949;DHT22;14848;50.954;6.642;2022-07-23T03:39:24;15.10;99.90
15949;DHT22;14848;50.954;6.642;2022-07-23T03:41:50;15.10;99.90
15949;DHT22;14848;50.954;6.642;2022-07-23T03:44:15;14.60;99.90
15949;DHT22;14848;50.954;6.642;2022-07-23T03:46:41;15.10;99.90
15949;DHT22;14848;50.954;6.642;2022-07-23T03:49:07;15.00;99.90
15949;DHT22;14848;50.954;6.642;2022-07-23T03:51:32;15.00;99.90
15949;DHT22;14848;50.954;6.642;2022-07-23T03:53:58;15.00;99.90
15949;DHT22;14848;50.954;6.642;2022-07-23T03:56:23;15.00;99.90
15949;DHT22;14848;50.954;6.642;2022-07-23T03:58:49;14.90;99.90
15949;DHT22;14848;50.954;6.642;2022-07-23T04:01:15;14.90;99.90
15949;DHT22;14848;50.954;6.642;2022-07-23T04:03:41;14.90;99.90
15949;DHT22;14848;50.954;6.642;2022-07-23T04:06:07;14.90;99.90
15949;DHT22;14848;50.954;6.642;2022-07-23T04:08:32;14.90;99.90
15949;DHT22;14848;50.954;6.642;2022-07-23T04:10:58;14.90;99.90
15949;DHT22;14848;50.954;6.642;2022-07-23T04:13:24;14.90;99.90
15949;DHT22;14848;50.954;6.642;2022-07-23T04:15:50;14.90;99.90
15949;DHT22;14848;50.954;6.642;2022-07-23T04:18:16;15.00;99.90
15949;DHT22;14848;50.954;6.642;2022-07-23T04:20:47;15.00;99.90
15949;DHT22;14848;50.954;6.642;2022-07-23T04:23:13;15.00;99.90
15949;DHT22;14848;50.954;6.642;2022-07-23T04:25:39;15.00;99.90
15949;DHT22;14848;50.954;6.642;2022-07-23T04:28:04;15.10;99.90
15949;DHT22;14848;50.954;6.642;2022-07-23T04:30:30;15.10;99.90
15949;DHT22;14848;50.954;6.642;2022-07-23T04:32:55;15.10;99.90
15949;DHT22;14848;50.954;6.642;2022-07-23T04:35:21;15.10;99.90
15949;DHT22;14848;50.954;6.642;2022-07-23T04:37:47;15.40;99.90
15949;DHT22;14848;50.954;6.642;2022-07-23T04:40:13;15.20;99.90
15949;DHT22;14848;50.954;6.642;2022-07-23T04:42:39;15.30;99.90
15949;DHT22;14848;50.954;6.642;2022-07-23T04:45:05;15.30;99.90
15949;DHT22;14848;50.954;6.642;2022-07-23T04:47:32;15.30;99.90
15949;DHT22;14848;50.954;6.642;2022-07-23T04:49:57;15.30;99.90
15949;DHT22;14848;50.954;6.642;2022-07-23T04:52:23;15.30;99.90
15949;DHT22;14848;50.954;6.642;2022-07-23T04:54:49;15.30;99.90
15949;DHT22;14848;50.954;6.642;2022-07-23T04:57:15;15.30;99.90
15949;DHT22;14848;50.954;6.642;2022-07-23T04:59:41;15.40;99.90
15949;DHT22;14848;50.954;6.642;2022-07-23T05:02:07;15.40;99.90
15949;DHT22;14848;50.954;6.642;2022-07-23T05:09:25;15.70;99.90
15949;DHT22;14848;50.954;6.642;2022-07-23T05:11:51;15.70;99.90
15949;DHT22;14848;50.954;6.642;2022-07-23T05:14:17;15.80;99.90
15949;DHT22;14848;50.954;6.642;2022-07-23T05:16:43;15.80;99.90
15949;DHT22;14848;50.954;6.642;2022-07-23T05:24:01;16.10;99.90
15949;DHT22;14848;50.954;6.642;2022-07-23T05:26:27;16.30;99.90
15949;DHT22;14848;50.954;6.642;2022-07-23T05:28:53;16.40;99.90
15949;DHT22;14848;50.954;6.642;2022-07-23T05:31:18;16.60;99.90
15949;DHT22;14848;50.954;6.642;2022-07-23T05:33:44;16.50;99.90
15949;DHT22;14848;50.954;6.642;2022-07-23T05:36:10;16.60;99.90
15949;DHT22;14848;50.954;6.642;2022-07-23T05:38:36;16.50;99.90
15949;DHT22;14848;50.954;6.642;2022-07-23T05:41:02;16.60;99.90
15949;DHT22;14848;50.954;6.642;2022-07-23T05:43:29;16.50;99.90
15949;DHT22;14848;50.954;6.642;2022-07-23T05:45:55;16.60;99.90
15949;DHT22;14848;50.954;6.642;2022-07-23T05:48:21;16.70;99.90
15949;DHT22;14848;50.954;6.642;2022-07-23T05:50:47;16.60;99.90
15949;DHT22;14848;50.954;6.642;2022-07-23T05:53:13;16.60;99.90
15949;DHT22;14848;50.954;6.642;2022-07-23T05:55:39;16.90;99.90
15949;DHT22;14848;50.954;6.642;2022-07-23T05:58:05;17.20;99.90
15949;DHT22;14848;50.954;6.642;2022-07-23T06:02:57;17.50;99.90
15949;DHT22;14848;50.954;6.642;2022-07-23T06:05:23;17.90;99.90
15949;DHT22;14848;50.954;6.642;2022-07-23T06:07:49;18.00;99.90
15949;DHT22;14848;50.954;6.642;2022-07-23T06:10:15;18.20;99.90
15949;DHT22;14848;50.954;6.642;2022-07-23T06:12:41;18.40;99.90
15949;DHT22;14848;50.954;6.642;2022-07-23T06:15:08;18.40;99.90
15949;DHT22;14848;50.954;6.642;2022-07-23T06:17:34;18.40;99.90
15949;DHT22;14848;50.954;6.642;2022-07-23T06:20:00;18.90;99.90
15949;DHT22;14848;50.954;6.642;2022-07-23T06:22:25;19.30;99.90
15949;DHT22;14848;50.954;6.642;2022-07-23T06:27:18;20.80;99.90
15949;DHT22;14848;50.954;6.642;2022-07-23T06:29:43;21.40;99.90
15949;DHT22;14848;50.954;6.642;2022-07-23T06:32:09;21.50;99.90
15949;DHT22;14848;50.954;6.642;2022-07-23T06:34:35;21.50;99.90
15949;DHT22;14848;50.954;6.642;2022-07-23T06:37:01;21.50;99.90
15949;DHT22;14848;50.954;6.642;2022-07-23T06:39:26;21.70;99.90
15949;DHT22;14848;50.954;6.642;2022-07-23T06:41:52;21.40;99.90
15949;DHT22;14848;50.954;6.642;2022-07-23T06:44:18;21.20;99.90
15949;DHT22;14848;50.954;6.642;2022-07-23T06:46:44;21.40;99.90
15949;DHT22;14848;50.954;6.642;2022-07-23T06:49:10;22.00;99.90
15949;DHT22;14848;50.954;6.642;2022-07-23T06:51:35;22.10;99.90
15949;DHT22;14848;50.954;6.642;2022-07-23T06:54:02;21.80;99.90
15949;DHT22;14848;50.954;6.642;2022-07-23T06:56:27;21.10;99.90
15949;DHT22;14848;50.954;6.642;2022-07-23T06:58:53;21.10;99.90
15949;DHT22;14848;50.954;6.642;2022-07-23T07:01:19;21.70;99.90
15949;DHT22;14848;50.954;6.642;2022-07-23T07:03:45;22.50;99.90
15949;DHT22;14848;50.954;6.642;2022-07-23T07:06:10;23.00;99.90
15949;DHT22;14848;50.954;6.642;2022-07-23T07:08:36;24.00;99.90
15949;DHT22;14848;50.954;6.642;2022-07-23T07:11:02;24.60;99.90
15949;DHT22;14848;50.954;6.642;2022-07-23T07:13:28;24.50;99.90
15949;DHT22;14848;50.954;6.642;2022-07-23T07:15:54;24.70;99.90
15949;DHT22;14848;50.954;6.642;2022-07-23T07:18:20;24.30;99.90
15949;DHT22;14848;50.954;6.642;2022-07-23T07:20:45;24.00;99.90
15949;DHT22;14848;50.954;6.642;2022-07-23T07:23:12;23.20;99.90
15949;DHT22;14848;50.954;6.642;2022-07-23T07:25:38;23.20;99.90
15949;DHT22;14848;50.954;6.642;2022-07-23T07:28:04;23.40;99.90
15949;DHT22;14848;50.954;6.642;2022-07-23T07:30:30;23.70;99.90
15949;DHT22;14848;50.954;6.642;2022-07-23T07:32:55;24.40;99.90
15949;DHT22;14848;50.954;6.642;2022-07-23T07:35:21;24.50;99.90
15949;DHT22;14848;50.954;6.642;2022-07-23T07:40:13;25.40;99.90
15949;DHT22;14848;50.954;6.642;2022-07-23T07:42:52;25.30;99.90
15949;DHT22;14848;50.954;6.642;2022-07-23T07:45:20;24.80;99.90
15949;DHT22;14848;50.954;6.642;2022-07-23T07:47:46;25.00;99.90
15949;DHT22;14848;50.954;6.642;2022-07-23T07:50:12;24.50;99.90
15949;DHT22;14848;50.954;6.642;2022-07-23T07:52:38;24.50;99.90
15949;DHT22;14848;50.954;6.642;2022-07-23T07:55:05;24.00;99.90
15949;DHT22;14848;50.954;6.642;2022-07-23T07:59:57;24.50;99.90
15949;DHT22;14848;50.954;6.642;2022-07-23T08:02:23;25.20;99.90
15949;DHT22;14848;50.954;6.642;2022-07-23T08:04:48;25.40;99.90
15949;DHT22;14848;50.954;6.642;2022-07-23T08:07:15;25.30;99.90
15949;DHT22;14848;50.954;6.642;2022-07-23T08:09:41;25.30;99.90
15949;DHT22;14848;50.954;6.642;2022-07-23T08:12:07;25.30;99.90
15949;DHT22;14848;50.954;6.642;2022-07-23T08:14:33;23.50;99.90
15949;DHT22;14848;50.954;6.642;2022-07-23T08:19:25;23.00;99.90
15949;DHT22;14848;50.954;6.642;2022-07-23T08:21:50;22.40;99.90
15949;DHT22;14848;50.954;6.642;2022-07-23T08:24:16;22.50;99.90
15949;DHT22;14848;50.954;6.642;2022-07-23T08:26:42;22.70;99.90
15949;DHT22;14848;50.954;6.642;2022-07-23T08:29:07;22.50;99.90
15949;DHT22;14848;50.954;6.642;2022-07-23T08:31:33;22.50;99.90
15949;DHT22;14848;50.954;6.642;2022-07-23T08:34:00;22.30;99.90
15949;DHT22;14848;50.954;6.642;2022-07-23T08:36:25;22.20;99.90
15949;DHT22;14848;50.954;6.642;2022-07-23T08:39:00;22.10;99.90
15949;DHT22;14848;50.954;6.642;2022-07-23T08:41:29;21.90;99.90
15949;DHT22;14848;50.954;6.642;2022-07-23T08:43:55;22.00;99.90
15949;DHT22;14848;50.954;6.642;2022-07-23T08:46:22;22.00;99.90
15949;DHT22;14848;50.954;6.642;2022-07-23T08:48:50;21.90;99.90
15949;DHT22;14848;50.954;6.642;2022-07-23T08:51:16;21.80;99.90
15949;DHT22;14848;50.954;6.642;2022-07-23T08:53:42;21.80;99.90
15949;DHT22;14848;50.954;6.642;2022-07-23T08:56:09;22.00;99.90
15949;DHT22;14848;50.954;6.642;2022-07-23T08:58:35;22.00;99.90
15949;DHT22;14848;50.954;6.642;2022-07-23T09:01:01;22.20;99.90
15949;DHT22;14848;50.954;6.642;2022-07-23T09:03:30;22.40;99.90
15949;DHT22;14848;50.954;6.642;2022-07-23T09:05:58;22.20;99.90
15949;DHT22;14848;50.954;6.642;2022-07-23T09:08:45;22.10;99.90
15949;DHT22;14848;50.954;6.642;2022-07-23T09:11:12;21.80;99.90
15949;DHT22;14848;50.954;6.642;2022-07-23T09:13:42;21.70;99.90
15949;DHT22;14848;50.954;6.642;2022-07-23T09:16:12;21.90;99.90
15949;DHT22;14848;50.954;6.642;2022-07-23T09:21:11;22.60;99.90
15949;DHT22;14848;50.954;6.642;2022-07-23T09:24:02;22.60;99.90
15949;DHT22;14848;50.954;6.642;2022-07-23T09:29:02;22.20;99.90
15949;DHT22;14848;50.954;6.642;2022-07-23T09:34:19;22.30;99.90
15949;DHT22;14848;50.954;6.642;2022-07-23T09:36:46;22.30;99.90
15949;DHT22;14848;50.954;6.642;2022-07-23T09:39:12;22.30;99.90
15949;DHT22;14848;50.954;6.642;2022-07-23T09:41:44;22.40;99.90
15949;DHT22;14848;50.954;6.642;2022-07-23T09:44:15;22.70;99.90
15949;DHT22;14848;50.954;6.642;2022-07-23T09:46:42;22.90;99.90
15949;DHT22;14848;50.954;6.642;2022-07-23T09:49:26;23.00;99.90
15949;DHT22;14848;50.954;6.642;2022-07-23T09:51:56;23.00;99.90
15949;DHT22;14848;50.954;6.642;2022-07-23T09:54:39;22.90;99.90
15949;DHT22;14848;50.954;6.642;2022-07-23T09:57:11;22.80;99.90
15949;DHT22;14848;50.954;6.642;2022-07-23T09:59:44;22.90;99.90
15949;DHT22;14848;50.954;6.642;2022-07-23T10:02:12;23.10;99.90
15949;DHT22;14848;50.954;6.642;2022-07-23T10:04:39;23.40;99.90
15949;DHT22;14848;50.954;6.642;2022-07-23T10:07:06;23.10;99.90
15949;DHT22;14848;50.954;6.642;2022-07-23T10:09:39;22.90;99.90
15949;DHT22;14848;50.954;6.642;2022-07-23T10:12:11;22.80;99.90
15949;DHT22;14848;50.954;6.642;2022-07-23T10:14:45;22.80;99.90
15949;DHT22;14848;50.954;6.642;2022-07-23T10:17:11;22.70;99.90
15949;DHT22;14848;50.954;6.642;2022-07-23T10:19:37;22.70;99.90
15949;DHT22;14848;50.954;6.642;2022-07-23T10:22:11;22.80;99.90
15949;DHT22;14848;50.954;6.642;2022-07-23T10:24:51;22.80;99.90
15949;DHT22;14848;50.954;6.642;2022-07-23T10:35:47;22.70;99.90
15949;DHT22;14848;50.954;6.642;2022-07-23T10:40:55;22.60;99.90
15949;DHT22;14848;50.954;6.642;2022-07-23T10:43:21;22.60;99.90
15949;DHT22;14848;50.954;6.642;2022-07-23T10:45:47;22.90;99.90
15949;DHT22;14848;50.954;6.642;2022-07-23T10:48:24;23.10;99.90
15949;DHT22;14848;50.954;6.642;2022-07-23T10:59:24;23.70;99.90
15949;DHT22;14848;50.954;6.642;2022-07-23T11:01:50;23.40;99.90
15949;DHT22;14848;50.954;6.642;2022-07-23T11:04:16;23.50;99.90
15949;DHT22;14848;50.954;6.642;2022-07-23T11:09:26;23.90;99.90
15949;DHT22;14848;50.954;6.642;2022-07-23T11:17:24;24.10;99.90
15949;DHT22;14848;50.954;6.642;2022-07-23T11:25:03;24.10;99.90
15949;DHT22;14848;50.954;6.642;2022-07-23T11:27:44;24.30;99.90
15949;DHT22;14848;50.954;6.642;2022-07-23T11:35:39;24.30;99.90
15949;DHT22;14848;50.954;6.642;2022-07-23T11:40:30;23.90;99.90
15949;DHT22;14848;50.954;6.642;2022-07-23T11:42:59;23.90;99.90
15949;DHT22;14848;50.954;6.642;2022-07-23T11:45:37;23.80;99.90
15949;DHT22;14848;50.954;6.642;2022-07-23T11:48:04;23.90;99.90
15949;DHT22;14848;50.954;6.642;2022-07-23T11:50:31;23.90;99.90
15949;DHT22;14848;50.954;6.642;2022-07-23T11:52:57;23.90;99.90
15949;DHT22;14848;50.954;6.642;2022-07-23T11:55:22;24.10;99.90
15949;DHT22;14848;50.954;6.642;2022-07-23T11:57:50;24.20;99.90
15949;DHT22;14848;50.954;6.642;2022-07-23T12:00:20;24.30;99.90
15949;DHT22;14848;50.954;6.642;2022-07-23T12:02:51;24.60;99.90
15949;DHT22;14848;50.954;6.642;2022-07-23T12:05:23;24.60;99.90
15949;DHT22;14848;50.954;6.642;2022-07-23T12:07:51;24.60;99.90
15949;DHT22;14848;50.954;6.642;2022-07-23T12:10:34;24.50;99.90
15949;DHT22;14848;50.954;6.642;2022-07-23T12:13:05;24.40;99.90
15949;DHT22;14848;50.954;6.642;2022-07-23T12:15:33;24.40;99.90
15949;DHT22;14848;50.954;6.642;2022-07-23T12:18:02;24.50;99.90
15949;DHT22;14848;50.954;6.642;2022-07-23T12:20:31;24.80;99.90
15949;DHT22;14848;50.954;6.642;2022-07-23T12:22:59;24.60;99.90
15949;DHT22;14848;50.954;6.642;2022-07-23T12:25:31;24.50;99.90
15949;DHT22;14848;50.954;6.642;2022-07-23T12:28:03;24.40;99.90
15949;DHT22;14848;50.954;6.642;2022-07-23T12:30:44;24.40;99.90
15949;DHT22;14848;50.954;6.642;2022-07-23T12:35:54;24.70;99.90
15949;DHT22;14848;50.954;6.642;2022-07-23T12:38:22;24.80;99.90
15949;DHT22;14848;50.954;6.642;2022-07-23T12:40:53;24.80;99.90
15949;DHT22;14848;50.954;6.642;2022-07-23T12:43:23;24.80;99.90
15949;DHT22;14848;50.954;6.642;2022-07-23T12:45:54;24.90;99.90
15949;DHT22;14848;50.954;6.642;2022-07-23T12:48:26;25.00;99.90
15949;DHT22;14848;50.954;6.642;2022-07-23T12:51:01;24.90;99.90
15949;DHT22;14848;50.954;6.642;2022-07-23T12:53:37;25.00;99.90
15949;DHT22;14848;50.954;6.642;2022-07-23T12:56:09;25.20;99.90
15949;DHT22;14848;50.954;6.642;2022-07-23T12:58:51;25.20;99.90
15949;DHT22;14848;50.954;6.642;2022-07-23T13:01:25;25.20;99.90
15949;DHT22;14848;50.954;6.642;2022-07-23T13:04:03;25.20;99.90
15949;DHT22;14848;50.954;6.642;2022-07-23T13:06:33;25.20;99.90
15949;DHT22;14848;50.954;6.642;2022-07-23T13:09:00;25.30;99.90
15949;DHT22;14848;50.954;6.642;2022-07-23T13:11:26;25.30;99.90
15949;DHT22;14848;50.954;6.642;2022-07-23T13:13:52;25.40;99.90
15949;DHT22;14848;50.954;6.642;2022-07-23T13:16:18;25.40;99.90
15949;DHT22;14848;50.954;6.642;2022-07-23T13:18:44;25.40;99.90
15949;DHT22;14848;50.954;6.642;2022-07-23T13:21:10;25.40;99.90
15949;DHT22;14848;50.954;6.642;2022-07-23T13:23:36;25.20;99.90
15949;DHT22;14848;50.954;6.642;2022-07-23T13:26:03;25.30;99.90
15949;DHT22;14848;50.954;6.642;2022-07-23T13:28:29;25.30;99.90
15949;DHT22;14848;50.954;6.642;2022-07-23T13:30:55;25.30;99.90
15949;DHT22;14848;50.954;6.642;2022-07-23T13:33:23;25.20;99.90
15949;DHT22;14848;50.954;6.642;2022-07-23T13:35:50;25.20;99.90
15949;DHT22;14848;50.954;6.642;2022-07-23T13:38:17;25.30;99.90
15949;DHT22;14848;50.954;6.642;2022-07-23T13:40:45;25.30;99.90
15949;DHT22;14848;50.954;6.642;2022-07-23T13:43:12;25.40;99.90
15949;DHT22;14848;50.954;6.642;2022-07-23T13:45:40;25.60;99.90
15949;DHT22;14848;50.954;6.642;2022-07-23T13:48:08;25.70;99.90
15949;DHT22;14848;50.954;6.642;2022-07-23T13:50:35;25.60;99.90
15949;DHT22;14848;50.954;6.642;2022-07-23T13:53:03;25.70;99.90
15949;DHT22;14848;50.954;6.642;2022-07-23T13:55:30;25.50;99.90
15949;DHT22;14848;50.954;6.642;2022-07-23T13:57:56;25.70;99.90
15949;DHT22;14848;50.954;6.642;2022-07-23T14:00:22;25.80;99.90
15949;DHT22;14848;50.954;6.642;2022-07-23T14:02:48;25.90;99.90
15949;DHT22;14848;50.954;6.642;2022-07-23T14:05:14;25.90;99.90
15949;DHT22;14848;50.954;6.642;2022-07-23T14:07:40;26.00;99.90
15949;DHT22;14848;50.954;6.642;2022-07-23T14:10:07;26.00;99.90
15949;DHT22;14848;50.954;6.642;2022-07-23T14:12:33;26.00;99.90
15949;DHT22;14848;50.954;6.642;2022-07-23T14:14:59;25.70;99.90
15949;DHT22;14848;50.954;6.642;2022-07-23T14:17:26;25.90;99.90
15949;DHT22;14848;50.954;6.642;2022-07-23T14:19:51;26.00;99.90
15949;DHT22;14848;50.954;6.642;2022-07-23T14:22:17;26.00;99.90
15949;DHT22;14848;50.954;6.642;2022-07-23T14:24:43;26.10;99.90
15949;DHT22;14848;50.954;6.642;2022-07-23T14:27:09;26.00;99.90
15949;DHT22;14848;50.954;6.642;2022-07-23T14:29:35;26.30;99.90
15949;DHT22;14848;50.954;6.642;2022-07-23T14:32:03;26.30;99.90
15949;DHT22;14848;50.954;6.642;2022-07-23T14:34:29;26.20;99.90
15949;DHT22;14848;50.954;6.642;2022-07-23T14:36:55;26.30;99.90
15949;DHT22;14848;50.954;6.642;2022-07-23T14:39:21;26.30;99.90
15949;DHT22;14848;50.954;6.642;2022-07-23T14:41:47;26.50;99.90
15949;DHT22;14848;50.954;6.642;2022-07-23T14:44:13;26.50;99.90
15949;DHT22;14848;50.954;6.642;2022-07-23T14:46:39;26.50;99.90
15949;DHT22;14848;50.954;6.642;2022-07-23T14:49:04;26.30;99.90
15949;DHT22;14848;50.954;6.642;2022-07-23T14:51:30;26.10;99.90
15949;DHT22;14848;50.954;6.642;2022-07-23T14:53:56;26.20;99.90
15949;DHT22;14848;50.954;6.642;2022-07-23T14:56:22;26.30;99.90
15949;DHT22;14848;50.954;6.642;2022-07-23T14:58:48;26.40;99.90
15949;DHT22;14848;50.954;6.642;2022-07-23T15:01:14;26.60;99.90
15949;DHT22;14848;50.954;6.642;2022-07-23T15:03:39;26.70;99.90
15949;DHT22;14848;50.954;6.642;2022-07-23T15:06:06;26.60;99.90
15949;DHT22;14848;50.954;6.642;2022-07-23T15:08:31;26.70;99.90
15949;DHT22;14848;50.954;6.642;2022-07-23T15:10:57;26.80;99.90
15949;DHT22;14848;50.954;6.642;2022-07-23T15:13:23;26.90;99.90
15949;DHT22;14848;50.954;6.642;2022-07-23T15:15:49;27.00;99.90
15949;DHT22;14848;50.954;6.642;2022-07-23T15:18:14;27.00;99.90
15949;DHT22;14848;50.954;6.642;2022-07-23T15:20:40;26.90;99.90
15949;DHT22;14848;50.954;6.642;2022-07-23T15:23:07;27.00;99.90
15949;DHT22;14848;50.954;6.642;2022-07-23T15:25:33;26.90;99.90
15949;DHT22;14848;50.954;6.642;2022-07-23T15:27:58;26.70;99.90
15949;DHT22;14848;50.954;6.642;2022-07-23T15:30:25;26.80;99.90
15949;DHT22;14848;50.954;6.642;2022-07-23T15:32:51;27.00;99.90
15949;DHT22;14848;50.954;6.642;2022-07-23T15:35:17;27.10;99.90
15949;DHT22;14848;50.954;6.642;2022-07-23T15:37:43;27.00;99.90
15949;DHT22;14848;50.954;6.642;2022-07-23T15:40:09;26.90;99.90
15949;DHT22;14848;50.954;6.642;2022-07-23T15:42:35;26.90;99.90
15949;DHT22;14848;50.954;6.642;2022-07-23T15:45:01;26.90;99.90
15949;DHT22;14848;50.954;6.642;2022-07-23T15:47:27;26.90;99.90
15949;DHT22;14848;50.954;6.642;2022-07-23T15:49:52;26.90;99.90
15949;DHT22;14848;50.954;6.642;2022-07-23T15:52:18;26.70;99.90
15949;DHT22;14848;50.954;6.642;2022-07-23T15:54:44;26.80;99.90
15949;DHT22;14848;50.954;6.642;2022-07-23T15:57:09;26.80;99.90
15949;DHT22;14848;50.954;6.642;2022-07-23T15:59:35;27.10;99.90
15949;DHT22;14848;50.954;6.642;2022-07-23T16:02:02;27.20;99.90
15949;DHT22;14848;50.954;6.642;2022-07-23T16:04:28;27.40;99.90
15949;DHT22;14848;50.954;6.642;2022-07-23T16:06:54;27.40;99.90
15949;DHT22;14848;50.954;6.642;2022-07-23T16:09:19;27.30;99.90
15949;DHT22;14848;50.954;6.642;2022-07-23T16:11:45;27.20;99.90
15949;DHT22;14848;50.954;6.642;2022-07-23T16:14:11;27.00;99.90
15949;DHT22;14848;50.954;6.642;2022-07-23T16:16:37;27.00;99.90
15949;DHT22;14848;50.954;6.642;2022-07-23T16:19:03;27.10;99.90
15949;DHT22;14848;50.954;6.642;2022-07-23T16:21:28;27.10;99.90
15949;DHT22;14848;50.954;6.642;2022-07-23T16:23:54;26.90;99.90
15949;DHT22;14848;50.954;6.642;2022-07-23T16:26:20;27.00;99.90
15949;DHT22;14848;50.954;6.642;2022-07-23T16:28:46;26.90;99.90
15949;DHT22;14848;50.954;6.642;2022-07-23T16:31:12;26.80;99.90
15949;DHT22;14848;50.954;6.642;2022-07-23T16:33:39;26.80;99.90
15949;DHT22;14848;50.954;6.642;2022-07-23T16:36:06;26.70;99.90
15949;DHT22;14848;50.954;6.642;2022-07-23T16:38:36;26.80;99.90
15949;DHT22;14848;50.954;6.642;2022-07-23T16:41:03;27.00;99.90
15949;DHT22;14848;50.954;6.642;2022-07-23T16:43:29;27.10;99.90